sensor_id;sensor_type;location;lat;lon;timestamp;temperature;humidity
23815;DHT22;12088;53.078;8.720;2022-11-20T00:01:20;1.30;99.90
23815;DHT22;12088;53.078;8.720;2022-11-20T00:03:46;1.20;99.90
23815;DHT22;12088;53.078;8.720;2022-11-20T00:06:16;1.30;99.90
23815;DHT22;12088;53.078;8.720;2022-11-20T00:08:42;1.30;99.90
23815;DHT22;12088;53.078;8.720;2022-11-20T00:11:13;1.30;99.90
23815;DHT22;12088;53.078;8.720;2022-11-20T00:13:39;1.40;99.90
23815;DHT22;12088;53.078;8.720;2022-11-20T00:16:07;1.40;99.90
23815;DHT22;12088;53.078;8.720;2022-11-20T00:18:34;1.40;99.90
23815;DHT22;12088;53.078;8.720;2022-11-20T00:21:10;1.40;99.90
23815;DHT22;12088;53.078;8.720;2022-11-20T00:23:36;1.40;99.90
23815;DHT22;12088;53.078;8.720;2022-11-20T00:26:03;1.50;99.90
23815;DHT22;12088;53.078;8.720;2022-11-20T00:28:28;1.50;99.90
23815;DHT22;12088;53.078;8.720;2022-11-20T00:31:07;1.50;99.90
23815;DHT22;12088;53.078;8.720;2022-11-20T00:33:33;1.50;99.90
23815;DHT22;12088;53.078;8.720;2022-11-20T00:36:12;1.50;99.90
23815;DHT22;12088;53.078;8.720;2022-11-20T00:38:39;1.40;99.90
23815;DHT22;12088;53.078;8.720;2022-11-20T00:41:09;1.40;99.90
23815;DHT22;12088;53.078;8.720;2022-11-20T00:43:37;1.30;99.90
23815;DHT22;12088;53.078;8.720;2022-11-20T00:46:23;1.30;99.90
23815;DHT22;12088;53.078;8.720;2022-11-20T00:48:49;1.20;99.90
23815;DHT22;12088;53.078;8.720;2022-11-20T00:51:18;1.20;99.90
23815;DHT22;12088;53.078;8.720;2022-11-20T00:53:44;1.30;99.90
23815;DHT22;12088;53.078;8.720;2022-11-20T00:56:15;1.30;99.90
23815;DHT22;12088;53.078;8.720;2022-11-20T00:58:43;1.30;99.90
23815;DHT22;12088;53.078;8.720;2022-11-20T01:01:15;1.30;99.90
23815;DHT22;12088;53.078;8.720;2022-11-20T01:03:44;1.40;99.90
23815;DHT22;12088;53.078;8.720;2022-11-20T01:06:22;1.40;99.90
23815;DHT22;12088;53.078;8.720;2022-11-20T01:08:49;1.40;99.90
23815;DHT22;12088;53.078;8.720;2022-11-20T01:11:22;1.40;99.90
23815;DHT22;12088;53.078;8.720;2022-11-20T01:13:48;1.50;99.90
23815;DHT22;12088;53.078;8.720;2022-11-20T01:16:17;1.50;99.90
23815;DHT22;12088;53.078;8.720;2022-11-20T01:18:45;1.40;99.90
23815;DHT22;12088;53.078;8.720;2022-11-20T01:21:13;1.40;99.90
23815;DHT22;12088;53.078;8.720;2022-11-20T01:23:41;1.50;99.90
23815;DHT22;12088;53.078;8.720;2022-11-20T01:26:12;1.50;99.90
23815;DHT22;12088;53.078;8.720;2022-11-20T01:28:40;1.50;99.90
23815;DHT22;12088;53.078;8.720;2022-11-20T01:31:24;1.50;99.90
23815;DHT22;12088;53.078;8.720;2022-11-20T01:33:52;1.50;99.90
23815;DHT22;12088;53.078;8.720;2022-11-20T01:36:19;1.50;99.90
23815;DHT22;12088;53.078;8.720;2022-11-20T01:38:46;1.50;99.90
23815;DHT22;12088;53.078;8.720;2022-11-20T01:41:13;1.50;99.90
23815;DHT22;12088;53.078;8.720;2022-11-20T01:44:00;1.50;99.90
23815;DHT22;12088;53.078;8.720;2022-11-20T01:46:25;1.50;99.90
23815;DHT22;12088;53.078;8.720;2022-11-20T01:49:11;1.50;99.90
23815;DHT22;12088;53.078;8.720;2022-11-20T01:52:14;1.50;99.90
23815;DHT22;12088;53.078;8.720;2022-11-20T01:54:47;1.60;99.90
23815;DHT22;12088;53.078;8.720;2022-11-20T01:57:15;1.60;99.90
23815;DHT22;12088;53.078;8.720;2022-11-20T01:59:52;1.60;99.90
23815;DHT22;12088;53.078;8.720;2022-11-20T02:02:20;1.50;99.90
23815;DHT22;12088;53.078;8.720;2022-11-20T02:04:47;1.60;99.90
23815;DHT22;12088;53.078;8.720;2022-11-20T02:07:14;1.50;99.90
23815;DHT22;12088;53.078;8.720;2022-11-20T02:09:40;1.60;99.90
23815;DHT22;12088;53.078;8.720;2022-11-20T02:12:06;1.60;99.90
23815;DHT22;12088;53.078;8.720;2022-11-20T02:14:52;1.50;99.90
23815;DHT22;12088;53.078;8.720;2022-11-20T02:17:17;1.50;99.90
23815;DHT22;12088;53.078;8.720;2022-11-20T02:19:43;1.50;99.90
23815;DHT22;12088;53.078;8.720;2022-11-20T02:22:16;1.50;99.90
23815;DHT22;12088;53.078;8.720;2022-11-20T02:24:44;1.50;99.90
23815;DHT22;12088;53.078;8.720;2022-11-20T02:27:15;1.50;99.90
23815;DHT22;12088;53.078;8.720;2022-11-20T02:32:23;1.50;99.90
23815;DHT22;12088;53.078;8.720;2022-11-20T02:34:49;1.50;99.90
23815;DHT22;12088;53.078;8.720;2022-11-20T02:37:15;1.50;99.90
23815;DHT22;12088;53.078;8.720;2022-11-20T02:39:41;1.50;99.90
23815;DHT22;12088;53.078;8.720;2022-11-20T02:42:09;1.60;99.90
23815;DHT22;12088;53.078;8.720;2022-11-20T02:44:34;1.60;99.90
23815;DHT22;12088;53.078;8.720;2022-11-20T02:47:00;1.60;99.90
23815;DHT22;12088;53.078;8.720;2022-11-20T02:49:26;1.60;99.90
23815;DHT22;12088;53.078;8.720;2022-11-20T02:51:51;1.60;99.90
23815;DHT22;12088;53.078;8.720;2022-11-20T02:54:17;1.60;99.90
23815;DHT22;12088;53.078;8.720;2022-11-20T02:56:42;1.60;99.90
23815;DHT22;12088;53.078;8.720;2022-11-20T02:59:09;1.60;99.90
23815;DHT22;12088;53.078;8.720;2022-11-20T03:01:35;1.70;99.90
23815;DHT22;12088;53.078;8.720;2022-11-20T03:04:01;1.70;99.90
23815;DHT22;12088;53.078;8.720;2022-11-20T03:06:26;1.70;99.90
23815;DHT22;12088;53.078;8.720;2022-11-20T03:08:52;1.70;99.90
23815;DHT22;12088;53.078;8.720;2022-11-20T03:11:17;1.70;99.90
23815;DHT22;12088;53.078;8.720;2022-11-20T03:13:43;1.60;99.90
23815;DHT22;12088;53.078;8.720;2022-11-20T03:16:27;1.60;99.90
23815;DHT22;12088;53.078;8.720;2022-11-20T03:18:52;1.60;99.90
23815;DHT22;12088;53.078;8.720;2022-11-20T03:21:18;1.50;99.90
23815;DHT22;12088;53.078;8.720;2022-11-20T03:23:44;1.50;99.90
23815;DHT22;12088;53.078;8.720;2022-11-20T03:26:14;1.40;99.90
23815;DHT22;12088;53.078;8.720;2022-11-20T03:28:41;1.40;99.90
23815;DHT22;12088;53.078;8.720;2022-11-20T03:31:12;1.40;99.90
23815;DHT22;12088;53.078;8.720;2022-11-20T03:33:39;1.40;99.90
23815;DHT22;12088;53.078;8.720;2022-11-20T03:36:06;1.40;99.90
23815;DHT22;12088;53.078;8.720;2022-11-20T03:38:32;1.50;99.90
23815;DHT22;12088;53.078;8.720;2022-11-20T03:41:10;1.60;99.90
23815;DHT22;12088;53.078;8.720;2022-11-20T03:43:36;1.60;99.90
23815;DHT22;12088;53.078;8.720;2022-11-20T03:46:02;1.50;99.90
23815;DHT22;12088;53.078;8.720;2022-11-20T03:48:28;1.60;99.90
23815;DHT22;12088;53.078;8.720;2022-11-20T03:51:07;1.60;99.90
23815;DHT22;12088;53.078;8.720;2022-11-20T03:53:32;1.60;99.90
23815;DHT22;12088;53.078;8.720;2022-11-20T03:55:58;1.60;99.90
23815;DHT22;12088;53.078;8.720;2022-11-20T03:58:23;1.60;99.90
23815;DHT22;12088;53.078;8.720;2022-11-20T04:00:49;1.60;99.90
23815;DHT22;12088;53.078;8.720;2022-11-20T04:03:14;1.60;99.90
23815;DHT22;12088;53.078;8.720;2022-11-20T04:05:40;1.50;99.90
23815;DHT22;12088;53.078;8.720;2022-11-20T04:08:05;1.60;99.90
23815;DHT22;12088;53.078;8.720;2022-11-20T04:10:31;1.60;99.90
23815;DHT22;12088;53.078;8.720;2022-11-20T04:12:56;1.60;99.90
23815;DHT22;12088;53.078;8.720;2022-11-20T04:15:22;1.60;99.90
23815;DHT22;12088;53.078;8.720;2022-11-20T04:17:47;1.50;99.90
23815;DHT22;12088;53.078;8.720;2022-11-20T04:20:13;1.50;99.90
23815;DHT22;12088;53.078;8.720;2022-11-20T04:22:38;1.60;99.90
23815;DHT22;12088;53.078;8.720;2022-11-20T04:25:04;1.60;99.90
23815;DHT22;12088;53.078;8.720;2022-11-20T04:27:30;1.70;99.90
23815;DHT22;12088;53.078;8.720;2022-11-20T04:29:56;1.70;99.90
23815;DHT22;12088;53.078;8.720;2022-11-20T04:32:22;1.80;99.90
23815;DHT22;12088;53.078;8.720;2022-11-20T04:34:47;1.80;99.90
23815;DHT22;12088;53.078;8.720;2022-11-20T04:37:13;1.70;99.90
23815;DHT22;12088;53.078;8.720;2022-11-20T04:39:38;1.70;99.90
23815;DHT22;12088;53.078;8.720;2022-11-20T04:42:04;1.70;99.90
23815;DHT22;12088;53.078;8.720;2022-11-20T04:44:56;1.70;99.90
23815;DHT22;12088;53.078;8.720;2022-11-20T04:47:22;1.70;99.90
23815;DHT22;12088;53.078;8.720;2022-11-20T04:49:47;1.70;99.90
23815;DHT22;12088;53.078;8.720;2022-11-20T04:52:13;1.70;99.90
23815;DHT22;12088;53.078;8.720;2022-11-20T04:54:39;1.70;99.90
23815;DHT22;12088;53.078;8.720;2022-11-20T04:57:04;1.70;99.90
23815;DHT22;12088;53.078;8.720;2022-11-20T04:59:30;1.70;99.90
23815;DHT22;12088;53.078;8.720;2022-11-20T05:01:55;1.70;99.90
23815;DHT22;12088;53.078;8.720;2022-11-20T05:04:21;1.80;99.90
23815;DHT22;12088;53.078;8.720;2022-11-20T05:06:46;1.80;99.90
23815;DHT22;12088;53.078;8.720;2022-11-20T05:09:12;1.80;99.90
23815;DHT22;12088;53.078;8.720;2022-11-20T05:11:38;1.80;99.90
23815;DHT22;12088;53.078;8.720;2022-11-20T05:14:03;1.80;99.90
23815;DHT22;12088;53.078;8.720;2022-11-20T05:16:29;1.80;99.90
23815;DHT22;12088;53.078;8.720;2022-11-20T05:18:55;1.80;99.90
23815;DHT22;12088;53.078;8.720;2022-11-20T05:21:21;1.80;99.90
23815;DHT22;12088;53.078;8.720;2022-11-20T05:23:47;1.80;99.90
23815;DHT22;12088;53.078;8.720;2022-11-20T05:26:18;1.70;99.90
23815;DHT22;12088;53.078;8.720;2022-11-20T05:28:44;1.70;99.90
23815;DHT22;12088;53.078;8.720;2022-11-20T05:31:12;1.70;99.90
23815;DHT22;12088;53.078;8.720;2022-11-20T05:33:40;1.70;99.90
23815;DHT22;12088;53.078;8.720;2022-11-20T05:36:07;1.70;99.90
23815;DHT22;12088;53.078;8.720;2022-11-20T05:38:32;1.70;99.90
23815;DHT22;12088;53.078;8.720;2022-11-20T05:41:15;1.80;99.90
23815;DHT22;12088;53.078;8.720;2022-11-20T05:43:43;1.80;99.90
23815;DHT22;12088;53.078;8.720;2022-11-20T05:46:11;1.70;99.90
23815;DHT22;12088;53.078;8.720;2022-11-20T05:48:37;1.80;99.90
23815;DHT22;12088;53.078;8.720;2022-11-20T05:51:05;1.70;99.90
23815;DHT22;12088;53.078;8.720;2022-11-20T05:53:32;1.80;99.90
23815;DHT22;12088;53.078;8.720;2022-11-20T05:56:10;1.80;99.90
23815;DHT22;12088;53.078;8.720;2022-11-20T05:58:37;1.80;99.90
23815;DHT22;12088;53.078;8.720;2022-11-20T06:01:09;1.80;99.90
23815;DHT22;12088;53.078;8.720;2022-11-20T06:03:35;1.80;99.90
23815;DHT22;12088;53.078;8.720;2022-11-20T06:06:02;1.70;99.90
23815;DHT22;12088;53.078;8.720;2022-11-20T06:08:27;1.80;99.90
23815;DHT22;12088;53.078;8.720;2022-11-20T06:10:53;1.80;99.90
23815;DHT22;12088;53.078;8.720;2022-11-20T06:13:19;1.80;99.90
23815;DHT22;12088;53.078;8.720;2022-11-20T06:15:51;1.70;99.90
23815;DHT22;12088;53.078;8.720;2022-11-20T06:18:17;1.70;99.90
23815;DHT22;12088;53.078;8.720;2022-11-20T06:20:43;1.70;99.90
23815;DHT22;12088;53.078;8.720;2022-11-20T06:23:08;1.70;99.90
23815;DHT22;12088;53.078;8.720;2022-11-20T06:25:38;1.60;99.90
23815;DHT22;12088;53.078;8.720;2022-11-20T06:28:03;1.60;99.90
23815;DHT22;12088;53.078;8.720;2022-11-20T06:30:29;1.60;99.90
23815;DHT22;12088;53.078;8.720;2022-11-20T06:32:54;1.60;99.90
23815;DHT22;12088;53.078;8.720;2022-11-20T06:35:20;1.60;99.90
23815;DHT22;12088;53.078;8.720;2022-11-20T06:37:45;1.50;99.90
23815;DHT22;12088;53.078;8.720;2022-11-20T06:40:11;1.60;99.90
23815;DHT22;12088;53.078;8.720;2022-11-20T06:42:37;1.40;99.90
23815;DHT22;12088;53.078;8.720;2022-11-20T06:45:03;1.40;99.90
23815;DHT22;12088;53.078;8.720;2022-11-20T06:47:28;1.40;99.90
23815;DHT22;12088;53.078;8.720;2022-11-20T06:49:54;1.40;99.90
23815;DHT22;12088;53.078;8.720;2022-11-20T06:52:19;1.50;99.90
23815;DHT22;12088;53.078;8.720;2022-11-20T06:54:44;1.60;99.90
23815;DHT22;12088;53.078;8.720;2022-11-20T06:57:10;1.60;99.90
23815;DHT22;12088;53.078;8.720;2022-11-20T06:59:35;1.60;99.90
23815;DHT22;12088;53.078;8.720;2022-11-20T07:02:01;1.60;99.90
23815;DHT22;12088;53.078;8.720;2022-11-20T07:04:27;1.50;99.90
23815;DHT22;12088;53.078;8.720;2022-11-20T07:06:52;1.40;99.90
23815;DHT22;12088;53.078;8.720;2022-11-20T07:09:18;1.60;99.90
23815;DHT22;12088;53.078;8.720;2022-11-20T07:11:43;1.40;99.90
23815;DHT22;12088;53.078;8.720;2022-11-20T07:14:09;1.50;99.90
23815;DHT22;12088;53.078;8.720;2022-11-20T07:16:35;1.40;99.90
23815;DHT22;12088;53.078;8.720;2022-11-20T07:19:00;1.40;99.90
23815;DHT22;12088;53.078;8.720;2022-11-20T07:21:26;1.20;99.90
23815;DHT22;12088;53.078;8.720;2022-11-20T07:23:51;1.20;99.90
23815;DHT22;12088;53.078;8.720;2022-11-20T07:26:17;1.10;99.90
23815;DHT22;12088;53.078;8.720;2022-11-20T07:28:44;1.10;99.90
23815;DHT22;12088;53.078;8.720;2022-11-20T07:31:10;1.10;99.90
23815;DHT22;12088;53.078;8.720;2022-11-20T07:33:37;1.10;99.90
23815;DHT22;12088;53.078;8.720;2022-11-20T07:36:03;1.10;99.90
23815;DHT22;12088;53.078;8.720;2022-11-20T07:38:29;1.20;99.90
23815;DHT22;12088;53.078;8.720;2022-11-20T07:40:58;1.20;99.90
23815;DHT22;12088;53.078;8.720;2022-11-20T07:43:24;1.20;99.90
23815;DHT22;12088;53.078;8.720;2022-11-20T07:45:50;1.20;99.90
23815;DHT22;12088;53.078;8.720;2022-11-20T07:48:15;1.30;99.90
23815;DHT22;12088;53.078;8.720;2022-11-20T07:50:41;1.30;99.90
23815;DHT22;12088;53.078;8.720;2022-11-20T07:53:07;1.40;99.90
23815;DHT22;12088;53.078;8.720;2022-11-20T07:55:33;1.60;99.90
23815;DHT22;12088;53.078;8.720;2022-11-20T07:57:58;1.70;99.90
23815;DHT22;12088;53.078;8.720;2022-11-20T08:00:25;1.80;99.90
23815;DHT22;12088;53.078;8.720;2022-11-20T08:02:51;1.80;99.90
23815;DHT22;12088;53.078;8.720;2022-11-20T08:05:16;1.80;99.90
23815;DHT22;12088;53.078;8.720;2022-11-20T08:07:43;1.90;99.90
23815;DHT22;12088;53.078;8.720;2022-11-20T08:10:11;2.00;99.90
23815;DHT22;12088;53.078;8.720;2022-11-20T08:12:48;2.00;99.90
23815;DHT22;12088;53.078;8.720;2022-11-20T08:15:32;2.20;99.90
23815;DHT22;12088;53.078;8.720;2022-11-20T08:18:07;2.20;99.90
23815;DHT22;12088;53.078;8.720;2022-11-20T08:20:34;2.30;99.90
23815;DHT22;12088;53.078;8.720;2022-11-20T08:23:01;2.40;99.90
23815;DHT22;12088;53.078;8.720;2022-11-20T08:25:29;2.50;99.90
23815;DHT22;12088;53.078;8.720;2022-11-20T08:28:01;2.50;99.90
23815;DHT22;12088;53.078;8.720;2022-11-20T08:30:27;2.50;99.90
23815;DHT22;12088;53.078;8.720;2022-11-20T08:32:54;2.40;99.90
23815;DHT22;12088;53.078;8.720;2022-11-20T08:35:21;2.30;99.90
23815;DHT22;12088;53.078;8.720;2022-11-20T08:37:47;2.30;99.90
23815;DHT22;12088;53.078;8.720;2022-11-20T08:40:13;2.30;99.90
23815;DHT22;12088;53.078;8.720;2022-11-20T08:42:49;2.40;99.90
23815;DHT22;12088;53.078;8.720;2022-11-20T08:45:16;2.40;99.90
23815;DHT22;12088;53.078;8.720;2022-11-20T08:47:42;2.40;99.90
23815;DHT22;12088;53.078;8.720;2022-11-20T08:50:09;2.40;99.90
23815;DHT22;12088;53.078;8.720;2022-11-20T08:52:35;2.40;99.90
23815;DHT22;12088;53.078;8.720;2022-11-20T08:55:00;2.40;99.90
23815;DHT22;12088;53.078;8.720;2022-11-20T08:57:26;2.50;99.90
23815;DHT22;12088;53.078;8.720;2022-11-20T08:59:51;2.50;99.90
23815;DHT22;12088;53.078;8.720;2022-11-20T09:02:17;2.50;99.90
23815;DHT22;12088;53.078;8.720;2022-11-20T09:04:42;2.50;99.90
23815;DHT22;12088;53.078;8.720;2022-11-20T09:07:08;2.50;99.90
23815;DHT22;12088;53.078;8.720;2022-11-20T09:09:33;2.60;99.90
23815;DHT22;12088;53.078;8.720;2022-11-20T09:11:59;2.80;99.90
23815;DHT22;12088;53.078;8.720;2022-11-20T09:14:24;2.80;99.90
23815;DHT22;12088;53.078;8.720;2022-11-20T09:16:54;2.80;99.90
23815;DHT22;12088;53.078;8.720;2022-11-20T09:19:20;2.80;99.90
23815;DHT22;12088;53.078;8.720;2022-11-20T09:21:45;2.70;99.90
23815;DHT22;12088;53.078;8.720;2022-11-20T09:24:11;2.70;99.90
23815;DHT22;12088;53.078;8.720;2022-11-20T09:26:36;2.70;99.90
23815;DHT22;12088;53.078;8.720;2022-11-20T09:29:02;2.70;99.90
23815;DHT22;12088;53.078;8.720;2022-11-20T09:31:27;2.70;99.90
23815;DHT22;12088;53.078;8.720;2022-11-20T09:33:53;2.80;99.90
23815;DHT22;12088;53.078;8.720;2022-11-20T09:36:19;2.70;99.90
23815;DHT22;12088;53.078;8.720;2022-11-20T09:38:45;2.70;99.90
23815;DHT22;12088;53.078;8.720;2022-11-20T09:44:56;2.50;99.90
23815;DHT22;12088;53.078;8.720;2022-11-20T09:47:46;2.40;99.90
23815;DHT22;12088;53.078;8.720;2022-11-20T09:50:52;2.30;99.90
23815;DHT22;12088;53.078;8.720;2022-11-20T09:54:00;2.40;99.90
23815;DHT22;12088;53.078;8.720;2022-11-20T09:56:28;2.40;99.90
23815;DHT22;12088;53.078;8.720;2022-11-20T09:58:56;2.40;99.90
23815;DHT22;12088;53.078;8.720;2022-11-20T10:01:26;2.40;99.90
23815;DHT22;12088;53.078;8.720;2022-11-20T10:06:39;2.50;99.90
23815;DHT22;12088;53.078;8.720;2022-11-20T10:11:48;2.50;99.90
23815;DHT22;12088;53.078;8.720;2022-11-20T10:14:33;2.50;99.90
23815;DHT22;12088;53.078;8.720;2022-11-20T10:19:56;2.40;99.90
23815;DHT22;12088;53.078;8.720;2022-11-20T10:23:02;2.50;99.90
23815;DHT22;12088;53.078;8.720;2022-11-20T10:25:39;2.50;99.90
23815;DHT22;12088;53.078;8.720;2022-11-20T10:28:16;2.60;99.90
23815;DHT22;12088;53.078;8.720;2022-11-20T10:30:45;2.60;99.90
23815;DHT22;12088;53.078;8.720;2022-11-20T10:33:22;2.60;99.90
23815;DHT22;12088;53.078;8.720;2022-11-20T10:36:00;2.70;99.90
23815;DHT22;12088;53.078;8.720;2022-11-20T10:38:40;2.70;99.90
23815;DHT22;12088;53.078;8.720;2022-11-20T10:41:19;2.90;99.90
23815;DHT22;12088;53.078;8.720;2022-11-20T10:44:03;2.90;99.90
23815;DHT22;12088;53.078;8.720;2022-11-20T10:46:43;2.90;99.90
23815;DHT22;12088;53.078;8.720;2022-11-20T10:49:16;2.80;99.90
23815;DHT22;12088;53.078;8.720;2022-11-20T10:51:51;2.70;99.90
23815;DHT22;12088;53.078;8.720;2022-11-20T10:57:23;2.80;99.90
23815;DHT22;12088;53.078;8.720;2022-11-20T11:02:23;2.60;99.90
23815;DHT22;12088;53.078;8.720;2022-11-20T11:04:53;2.50;99.90
23815;DHT22;12088;53.078;8.720;2022-11-20T11:09:56;2.60;99.90
23815;DHT22;12088;53.078;8.720;2022-11-20T11:12:24;2.70;99.90
23815;DHT22;12088;53.078;8.720;2022-11-20T11:14:52;2.80;99.90
23815;DHT22;12088;53.078;8.720;2022-11-20T11:17:27;2.80;99.90
23815;DHT22;12088;53.078;8.720;2022-11-20T11:19:58;2.70;99.90
23815;DHT22;12088;53.078;8.720;2022-11-20T11:22:23;2.80;99.90
23815;DHT22;12088;53.078;8.720;2022-11-20T11:24:53;2.90;99.90
23815;DHT22;12088;53.078;8.720;2022-11-20T11:27:19;2.90;99.90
23815;DHT22;12088;53.078;8.720;2022-11-20T11:29:45;2.90;99.90
23815;DHT22;12088;53.078;8.720;2022-11-20T11:32:13;3.00;99.90
23815;DHT22;12088;53.078;8.720;2022-11-20T11:34:40;3.10;99.90
23815;DHT22;12088;53.078;8.720;2022-11-20T11:37:13;3.10;99.90
23815;DHT22;12088;53.078;8.720;2022-11-20T11:39:41;3.10;99.90
23815;DHT22;12088;53.078;8.720;2022-11-20T11:42:13;3.10;99.90
23815;DHT22;12088;53.078;8.720;2022-11-20T11:44:45;3.00;99.90
23815;DHT22;12088;53.078;8.720;2022-11-20T11:55:33;2.70;99.90
23815;DHT22;12088;53.078;8.720;2022-11-20T11:58:09;2.60;99.90
23815;DHT22;12088;53.078;8.720;2022-11-20T12:00:39;2.60;99.90
23815;DHT22;12088;53.078;8.720;2022-11-20T12:03:14;2.50;99.90
23815;DHT22;12088;53.078;8.720;2022-11-20T12:05:58;2.60;99.90
23815;DHT22;12088;53.078;8.720;2022-11-20T12:08:41;2.50;99.90
23815;DHT22;12088;53.078;8.720;2022-11-20T12:14:24;2.30;99.90
23815;DHT22;12088;53.078;8.720;2022-11-20T12:16:50;2.20;99.90
23815;DHT22;12088;53.078;8.720;2022-11-20T12:19:18;2.20;99.90
23815;DHT22;12088;53.078;8.720;2022-11-20T12:27:41;2.50;99.90
23815;DHT22;12088;53.078;8.720;2022-11-20T12:30:15;2.40;99.90
23815;DHT22;12088;53.078;8.720;2022-11-20T12:41:06;2.30;99.90
23815;DHT22;12088;53.078;8.720;2022-11-20T12:44:11;2.30;99.90
23815;DHT22;12088;53.078;8.720;2022-11-20T12:52:57;2.30;99.90
23815;DHT22;12088;53.078;8.720;2022-11-20T12:55:47;2.40;99.90
23815;DHT22;12088;53.078;8.720;2022-11-20T12:58:20;2.30;99.90
23815;DHT22;12088;53.078;8.720;2022-11-20T13:01:43;2.20;99.90
23815;DHT22;12088;53.078;8.720;2022-11-20T13:06:53;2.20;99.90
23815;DHT22;12088;53.078;8.720;2022-11-20T13:09:20;2.20;99.90
23815;DHT22;12088;53.078;8.720;2022-11-20T13:14:47;2.00;99.90
23815;DHT22;12088;53.078;8.720;2022-11-20T13:19:56;1.90;99.90
23815;DHT22;12088;53.078;8.720;2022-11-20T13:22:43;1.90;99.90
23815;DHT22;12088;53.078;8.720;2022-11-20T13:25:10;1.90;99.90
23815;DHT22;12088;53.078;8.720;2022-11-20T13:27:35;2.20;99.90
23815;DHT22;12088;53.078;8.720;2022-11-20T13:30:14;2.20;99.90
23815;DHT22;12088;53.078;8.720;2022-11-20T13:32:50;2.30;99.90
23815;DHT22;12088;53.078;8.720;2022-11-20T13:35:31;2.00;99.90
23815;DHT22;12088;53.078;8.720;2022-11-20T13:38:06;2.10;99.90
23815;DHT22;12088;53.078;8.720;2022-11-20T13:40:33;2.20;99.90
23815;DHT22;12088;53.078;8.720;2022-11-20T13:43:15;2.20;99.90
23815;DHT22;12088;53.078;8.720;2022-11-20T13:46:04;2.10;99.90
23815;DHT22;12088;53.078;8.720;2022-11-20T13:48:33;2.40;99.90
23815;DHT22;12088;53.078;8.720;2022-11-20T13:51:25;2.50;99.90
23815;DHT22;12088;53.078;8.720;2022-11-20T13:57:02;2.40;99.90
23815;DHT22;12088;53.078;8.720;2022-11-20T13:59:57;2.30;99.90
23815;DHT22;12088;53.078;8.720;2022-11-20T14:02:26;2.30;99.90
23815;DHT22;12088;53.078;8.720;2022-11-20T14:04:55;2.40;99.90
23815;DHT22;12088;53.078;8.720;2022-11-20T14:07:25;2.30;99.90
23815;DHT22;12088;53.078;8.720;2022-11-20T14:09:54;2.50;99.90
23815;DHT22;12088;53.078;8.720;2022-11-20T14:12:23;2.30;99.90
23815;DHT22;12088;53.078;8.720;2022-11-20T14:14:53;2.30;99.90
23815;DHT22;12088;53.078;8.720;2022-11-20T14:17:29;2.40;99.90
23815;DHT22;12088;53.078;8.720;2022-11-20T14:19:58;2.20;99.90
23815;DHT22;12088;53.078;8.720;2022-11-20T14:22:28;2.10;99.90
23815;DHT22;12088;53.078;8.720;2022-11-20T14:25:14;2.00;99.90
23815;DHT22;12088;53.078;8.720;2022-11-20T14:27:47;2.00;99.90
23815;DHT22;12088;53.078;8.720;2022-11-20T14:30:24;2.00;99.90
23815;DHT22;12088;53.078;8.720;2022-11-20T14:32:53;2.00;99.90
23815;DHT22;12088;53.078;8.720;2022-11-20T14:35:24;1.90;99.90
23815;DHT22;12088;53.078;8.720;2022-11-20T14:37:51;1.90;99.90
23815;DHT22;12088;53.078;8.720;2022-11-20T14:40:29;1.80;99.90
23815;DHT22;12088;53.078;8.720;2022-11-20T14:42:56;1.80;99.90
23815;DHT22;12088;53.078;8.720;2022-11-20T14:45:23;1.70;99.90
23815;DHT22;12088;53.078;8.720;2022-11-20T14:47:49;1.50;99.90
23815;DHT22;12088;53.078;8.720;2022-11-20T14:50:23;1.50;99.90
23815;DHT22;12088;53.078;8.720;2022-11-20T14:55:38;1.20;99.90
23815;DHT22;12088;53.078;8.720;2022-11-20T14:58:21;1.10;99.90
23815;DHT22;12088;53.078;8.720;2022-11-20T15:00:58;1.00;99.90
23815;DHT22;12088;53.078;8.720;2022-11-20T15:03:38;1.00;99.90
23815;DHT22;12088;53.078;8.720;2022-11-20T15:06:05;1.20;99.90
23815;DHT22;12088;53.078;8.720;2022-11-20T15:08:32;1.20;99.90
23815;DHT22;12088;53.078;8.720;2022-11-20T15:10:57;1.10;99.90
23815;DHT22;12088;53.078;8.720;2022-11-20T15:13:29;1.10;99.90
23815;DHT22;12088;53.078;8.720;2022-11-20T15:15:57;1.00;99.90
23815;DHT22;12088;53.078;8.720;2022-11-20T15:18:27;0.90;99.90
23815;DHT22;12088;53.078;8.720;2022-11-20T15:20:55;0.90;99.90
23815;DHT22;12088;53.078;8.720;2022-11-20T15:23:21;0.80;99.90
23815;DHT22;12088;53.078;8.720;2022-11-20T15:25:48;0.80;99.90
23815;DHT22;12088;53.078;8.720;2022-11-20T15:28:22;0.70;99.90
23815;DHT22;12088;53.078;8.720;2022-11-20T15:30:49;0.60;99.90
23815;DHT22;12088;53.078;8.720;2022-11-20T15:33:16;0.60;99.90
23815;DHT22;12088;53.078;8.720;2022-11-20T15:35:42;0.60;99.90
23815;DHT22;12088;53.078;8.720;2022-11-20T15:38:07;0.50;99.90
23815;DHT22;12088;53.078;8.720;2022-11-20T15:40:33;0.40;99.90
23815;DHT22;12088;53.078;8.720;2022-11-20T15:42:58;0.10;99.90
23815;DHT22;12088;53.078;8.720;2022-11-20T15:45:37;0.00;99.90
23815;DHT22;12088;53.078;8.720;2022-11-20T15:48:05;-0.10;99.90
23815;DHT22;12088;53.078;8.720;2022-11-20T15:50:37;-0.20;99.90
23815;DHT22;12088;53.078;8.720;2022-11-20T15:53:04;-0.20;99.90
23815;DHT22;12088;53.078;8.720;2022-11-20T15:55:30;-0.20;99.90
23815;DHT22;12088;53.078;8.720;2022-11-20T15:57:56;-0.30;99.90
23815;DHT22;12088;53.078;8.720;2022-11-20T16:00:22;-0.20;99.90
23815;DHT22;12088;53.078;8.720;2022-11-20T16:02:47;-0.10;99.90
23815;DHT22;12088;53.078;8.720;2022-11-20T16:05:14;0.00;99.90
23815;DHT22;12088;53.078;8.720;2022-11-20T16:07:40;0.00;99.90
23815;DHT22;12088;53.078;8.720;2022-11-20T16:10:06;-0.10;99.90
23815;DHT22;12088;53.078;8.720;2022-11-20T16:12:31;-0.10;99.90
23815;DHT22;12088;53.078;8.720;2022-11-20T16:15:15;-0.10;99.90
23815;DHT22;12088;53.078;8.720;2022-11-20T16:17:59;-0.20;99.90
23815;DHT22;12088;53.078;8.720;2022-11-20T16:20:25;-0.30;99.90
23815;DHT22;12088;53.078;8.720;2022-11-20T16:22:50;-0.40;99.90
23815;DHT22;12088;53.078;8.720;2022-11-20T16:25:16;-0.40;99.90
23815;DHT22;12088;53.078;8.720;2022-11-20T16:27:41;-0.50;99.90
23815;DHT22;12088;53.078;8.720;2022-11-20T16:30:08;-0.60;99.90
23815;DHT22;12088;53.078;8.720;2022-11-20T16:32:33;-0.60;99.90
23815;DHT22;12088;53.078;8.720;2022-11-20T16:34:59;-0.70;99.90
23815;DHT22;12088;53.078;8.720;2022-11-20T16:37:24;-0.70;99.90
23815;DHT22;12088;53.078;8.720;2022-11-20T16:39:50;-0.80;99.90
23815;DHT22;12088;53.078;8.720;2022-11-20T16:42:15;-0.80;99.90
23815;DHT22;12088;53.078;8.720;2022-11-20T16:44:41;-0.80;99.90
23815;DHT22;12088;53.078;8.720;2022-11-20T16:47:06;-0.90;99.90
23815;DHT22;12088;53.078;8.720;2022-11-20T16:49:32;-0.80;99.90
23815;DHT22;12088;53.078;8.720;2022-11-20T16:51:58;-0.80;99.90
23815;DHT22;12088;53.078;8.720;2022-11-20T16:54:24;-0.90;99.90
23815;DHT22;12088;53.078;8.720;2022-11-20T16:56:49;-0.80;99.90
23815;DHT22;12088;53.078;8.720;2022-11-20T16:59:17;-0.90;99.90
23815;DHT22;12088;53.078;8.720;2022-11-20T17:01:43;-0.80;99.90
23815;DHT22;12088;53.078;8.720;2022-11-20T17:04:08;-0.80;99.90
23815;DHT22;12088;53.078;8.720;2022-11-20T17:06:40;-0.90;99.90
23815;DHT22;12088;53.078;8.720;2022-11-20T17:09:08;-0.90;99.90